Wednesday, June 20, 2018, 5:20 PM EDT
Back to Local

KBID, Block Island, Block Island State Airport

Location: Block Island, RI, United States Lat: 41.167
Local Time: 5:20 PM EDT (21:20 GMT) Lon: -71.567
Time Zone: US/Eastern Elev: 108 ft

Show me the last for .
Show Coded

Time T Td Feel RH Dir Speed Gust Alt SLP Vis Weather Sky Remarks
2018-06-20 16:56 71 65 76 81 210° 15 - 29.84 29.85 10 CLR 6-hr Precip Total (5pm): 0.00"
2018-06-20 15:56 71 64 76 78 210° 14 - 29.85 29.86 10 CLR 1-hr Precip Total: Trace
2018-06-20 14:56 71 64 76 78 210° 12 - 29.86 29.87 10 CLR None
2018-06-20 13:56 72 64 76 76 210° 14 - 29.87 29.87 10 CLR 6-hr Min Temp (2pm): 64.0°F
6-hr Max Temp (2pm): 72.0°F
2018-06-20 12:56 71 64 76 78 210° 14 - 29.88 29.89 10 CLR 1-hr Precip Total: Trace
2018-06-20 11:56 70 64 - 81 190° 12 - 29.89 29.90 10 CLR None
2018-06-20 10:56 69 63 - 80 190° 9 - 29.90 29.91 10 CLR None
2018-06-20 09:56 66 59 - 78 70° 3 - 29.91 29.92 10 CLR None
2018-06-20 08:56 64 57 - 77 50° 6 - 29.92 29.93 10 CLR None
2018-06-20 07:56 64 56 - 74 50° 3 - 29.92 29.93 10 CLR 6-hr Min Temp (8am): 59.0°F
6-hr Max Temp (8am): 64.0°F
2018-06-20 06:56 62 57 - 83 - Calm - 29.92 29.92 10 CLR None
2018-06-20 05:56 61 55 - 80 360° 5 - 29.90 29.91 10 CLR None
2018-06-20 04:56 60 56 - 86 10° 3 - 29.89 29.90 10 CLR None
2018-06-20 03:56 62 55 - 77 50° 5 - 29.88 29.89 10 CLR None
2018-06-20 02:56 63 55 - 75 30° 5 - 29.88 29.89 10 CLR None
2018-06-20 01:56 63 54 - 72 30° 5 - 29.88 29.88 10 CLR 6-hr Min Temp (2am): 62.1°F
6-hr Max Temp (2am): 72.0°F
2018-06-20 00:56 64 53 - 67 360° 5 - 29.88 29.89 10 CLR None
2018-06-19 23:56 66 52 - 60 320° 5 - 29.88 29.89 10 CLR 24-hr Min Temp (12am): 63.0°F
24-hr Max Temp (12am): 82.9°F
2018-06-19 22:56 69 52 - 54 330° 7 - 29.87 29.88 10 CLR None
2018-06-19 21:56 70 52 - 52 340° 6 - 29.86 29.86 10 CLR None
2018-06-19 20:56 70 54 - 56 350° 6 - 29.82 29.83 10 CLR None
2018-06-19 19:56 72 54 76 53 350° 6 - 29.81 29.82 10 CLR 6-hr Min Temp (8pm): 72.0°F
6-hr Max Temp (8pm): 82.9°F
2018-06-19 18:56 76 56 78 50 360° 6 - 29.80 29.80 10 CLR None
2018-06-19 17:56 79 54 79 42 Variable 6 - 29.78 29.79 10 CLR None

Support USWX by starting your Amazon purchase here.